Time;durP1;ratioP1;P1;durP2;ratioP2;P2;SDS_P1;SDS_P2;PMS_P1;PMS_P2;Temp;Humidity;BMP_temperature;BMP_pressure;BME280_temperature;BME280_humidity;BME280_pressure;Samples;Min_cycle;Max_cycle;Signal;HPM_P1;HPM_P2
2022/09/01 00:00:00;;;;;;;;;;;;;;;17.03;100.00;102364.69;5115469;28;20453;-32
2022/09/01 00:02:32;;;;;;;;;;;;;;;17.02;100.00;102363.00;5116004;28;19971;-37
2022/09/01 00:05:03;;;;;;;;;;;;;;;17.02;100.00;102356.53;5115030;28;19939;-32
2022/09/01 00:07:30;;;;;;;;;;;;;;;17.02;100.00;102356.53;5115169;28;19924;-35
2022/09/01 00:09:59;;;;;;;;;;;;;;;17.03;100.00;102353.41;5114829;28;19923;-33
2022/09/01 00:12:29;;;;;;;;;;;;;;;17.02;100.00;102345.25;5115725;28;20305;-38
2022/09/01 00:14:57;;;;;;;;;;;;;;;17.03;100.00;102349.72;5115869;28;20022;-31
2022/09/01 00:17:25;;;;;;;;;;;;;;;17.03;100.00;102352.56;5112148;28;19930;-33
2022/09/01 00:19:52;;;;;;;;;;;;;;;17.03;100.00;102346.91;5114118;28;19934;-37
2022/09/01 00:22:20;;;;;;;;;;;;;;;17.03;100.00;102355.38;5115315;28;20288;-32
2022/09/01 00:24:47;;;;;;;;;;;;;;;17.01;100.00;102347.22;5114918;28;19924;-36
2022/09/01 00:27:15;;;;;;;;;;;;;;;17.00;100.00;102354.00;5115379;28;19924;-31
2022/09/01 00:29:45;;;;;;;;;;;;;;;17.01;100.00;102346.38;5097070;28;20372;-38
2022/09/01 00:32:13;;;;;;;;;;;;;;;17.01;100.00;102343.56;5096128;28;19954;-32
2022/09/01 00:34:40;;;;;;;;;;;;;;;16.99;100.00;102346.69;5114953;28;19927;-38
2022/09/01 00:37:08;;;;;;;;;;;;;;;16.98;100.00;102352.66;5115099;28;19924;-32
2022/09/01 00:39:36;;;;;;;;;;;;;;;16.97;100.00;102342.53;5114082;28;19927;-32
2022/09/01 00:42:03;;;;;;;;;;;;;;;16.94;100.00;102351.59;5114889;28;20397;-33
2022/09/01 00:44:31;;;;;;;;;;;;;;;16.94;100.00;102345.94;5115154;28;20304;-34
2022/09/01 00:47:00;;;;;;;;;;;;;;;16.92;100.00;102343.44;5114039;28;19974;-32
2022/09/01 00:49:30;;;;;;;;;;;;;;;16.90;100.00;102339.25;5103923;28;20301;-31
2022/09/01 00:52:04;;;;;;;;;;;;;;;16.87;100.00;102338.72;5113995;28;19927;-38
2022/09/01 00:54:33;;;;;;;;;;;;;;;16.86;100.00;102341.84;5114971;28;20368;-31
2022/09/01 00:57:02;;;;;;;;;;;;;;;16.83;100.00;102337.63;5114861;28;20822;-32
2022/09/01 00:59:29;;;;;;;;;;;;;;;16.81;100.00;102327.81;5114045;28;20026;-32
2022/09/01 01:01:57;;;;;;;;;;;;;;;16.77;100.00;102327.59;5114175;28;20377;-33
2022/09/01 01:04:26;;;;;;;;;;;;;;;16.75;100.00;102327.06;5114523;28;19967;-39
2022/09/01 01:07:00;;;;;;;;;;;;;;;16.72;100.00;102322.03;5113889;28;19931;-41
2022/09/01 01:09:30;;;;;;;;;;;;;;;16.68;100.00;102323.78;5114775;28;19967;-37
2022/09/01 01:11:58;;;;;;;;;;;;;;;16.66;100.00;102322.41;5114519;28;19924;-37
2022/09/01 01:14:27;;;;;;;;;;;;;;;16.64;100.00;102319.06;5095342;28;19936;-37
2022/09/01 01:16:55;;;;;;;;;;;;;;;16.59;100.00;102314.28;5114351;28;19955;-32
2022/09/01 01:25:00;;;;;;;;;;;;;;;16.51;100.00;102298.09;5095743;28;19955;-37
2022/09/01 01:27:32;;;;;;;;;;;;;;;16.48;100.00;102305.16;5094938;28;20286;-36
2022/09/01 01:30:09;;;;;;;;;;;;;;;16.44;100.00;102294.78;5095331;28;19989;-39
2022/09/01 01:32:46;;;;;;;;;;;;;;;16.41;100.00;102304.69;5095985;28;19931;-31
2022/09/01 01:35:15;;;;;;;;;;;;;;;16.38;100.00;102301.66;5094898;28;19930;-35
2022/09/01 01:37:47;;;;;;;;;;;;;;;16.35;100.00;102313.53;5095581;28;19959;-31
2022/09/01 01:40:20;;;;;;;;;;;;;;;16.31;100.00;102313.28;5094049;28;19924;-32
2022/09/01 01:42:49;;;;;;;;;;;;;;;16.27;100.00;102305.75;5113229;28;19970;-36
2022/09/01 01:45:18;;;;;;;;;;;;;;;16.24;100.00;102311.97;5113661;28;20381;-38
2022/09/01 01:47:49;;;;;;;;;;;;;;;16.18;100.00;102309.25;5095494;28;19924;-34
2022/09/01 01:50:17;;;;;;;;;;;;;;;16.14;100.00;102304.53;5094485;28;20297;-32
2022/09/01 01:52:46;;;;;;;;;;;;;;;16.09;100.00;102302.59;5095486;28;19970;-34
2022/09/01 01:55:18;;;;;;;;;;;;;;;16.04;100.00;102299.84;5095313;28;19931;-33
2022/09/01 01:57:48;;;;;;;;;;;;;;;15.98;100.00;102303.88;5113590;28;19923;-38
2022/09/01 02:00:18;;;;;;;;;;;;;;;15.92;100.00;102293.81;5095265;28;19973;-32
2022/09/01 02:02:55;;;;;;;;;;;;;;;15.88;100.00;102303.16;5112945;28;19934;-37
2022/09/01 02:05:25;;;;;;;;;;;;;;;15.81;100.00;102303.50;5095174;28;19932;-37
2022/09/01 02:07:58;;;;;;;;;;;;;;;15.75;100.00;102296.28;5095132;28;20011;-33
2022/09/01 02:10:29;;;;;;;;;;;;;;;15.68;100.00;102304.22;5094261;28;19934;-37
2022/09/01 02:13:02;;;;;;;;;;;;;;;15.63;100.00;102305.13;5113200;28;19946;-33
2022/09/01 02:15:31;;;;;;;;;;;;;;;15.57;100.00;102302.69;5095184;28;19976;-34
2022/09/01 02:17:59;;;;;;;;;;;;;;;15.51;100.00;102307.47;5112550;28;19924;-37
2022/09/01 02:20:32;;;;;;;;;;;;;;;15.44;100.00;102302.19;5094819;28;19979;-32
2022/09/01 02:23:08;;;;;;;;;;;;;;;15.39;100.00;102296.59;5094784;28;19937;-40
2022/09/01 02:25:36;;;;;;;;;;;;;;;15.35;100.00;102298.34;5094208;28;20006;-34
2022/09/01 02:28:22;;;;;;;;;;;;;;;15.31;100.00;102300.09;5094974;28;19924;-32
2022/09/01 02:30:52;;;;;;;;;;;;;;;15.27;100.00;102299.00;5093851;28;19934;-31
2022/09/01 02:33:20;;;;;;;;;;;;;;;15.23;100.00;102300.72;5113020;28;20007;-30
2022/09/01 02:35:51;;;;;;;;;;;;;;;15.19;100.00;102294.00;5094687;28;19968;-35
2022/09/01 02:38:19;;;;;;;;;;;;;;;15.16;100.00;102298.25;5093865;28;20381;-33
2022/09/01 02:40:47;;;;;;;;;;;;;;;15.14;100.00;102299.69;5094673;28;19963;-30
2022/09/01 02:43:18;;;;;;;;;;;;;;;15.10;100.00;102299.44;5083121;28;19931;-40
2022/09/01 02:45:53;;;;;;;;;;;;;;;15.06;100.00;102298.34;5093757;28;19955;-39
2022/09/01 02:48:22;;;;;;;;;;;;;;;15.04;100.00;102296.94;5094448;28;19977;-31
2022/09/01 02:50:50;;;;;;;;;;;;;;;15.02;100.00;102290.78;5091107;28;19996;-31
2022/09/01 02:53:19;;;;;;;;;;;;;;;14.99;100.00;102295.00;5112120;28;19934;-31
2022/09/01 02:55:47;;;;;;;;;;;;;;;14.98;100.00;102289.72;5094342;28;19973;-37
2022/09/01 02:58:17;;;;;;;;;;;;;;;14.95;100.00;102291.13;5112764;28;19928;-31
2022/09/01 03:00:45;;;;;;;;;;;;;;;14.94;100.00;102294.25;5093585;28;19924;-37
2022/09/01 03:03:20;;;;;;;;;;;;;;;14.90;100.00;102285.53;5112439;28;19928;-34
2022/09/01 03:05:51;;;;;;;;;;;;;;;14.89;100.00;102291.47;5093733;28;19931;-32
2022/09/01 03:08:18;;;;;;;;;;;;;;;14.87;100.00;102288.09;5112659;28;19932;-39
2022/09/01 03:10:46;;;;;;;;;;;;;;;14.85;100.00;102293.19;5094260;28;20022;-31
2022/09/01 03:13:15;;;;;;;;;;;;;;;14.83;100.00;102297.13;5111662;28;19934;-30
2022/09/01 03:15:43;;;;;;;;;;;;;;;14.82;100.00;102294.59;5094009;28;19949;-35
2022/09/01 03:18:12;;;;;;;;;;;;;;;14.80;100.00;102289.25;5094246;28;20018;-40
2022/09/01 03:20:45;;;;;;;;;;;;;;;14.78;100.00;102285.94;5111751;28;20014;-32
2022/09/01 03:23:14;;;;;;;;;;;;;;;14.76;100.00;102291.00;5094547;28;19923;-35
2022/09/01 03:25:47;;;;;;;;;;;;;;;14.75;100.00;102292.13;5094027;28;19924;-32
2022/09/01 03:28:14;;;;;;;;;;;;;;;14.74;100.00;102279.22;5111102;28;19927;-35
2022/09/01 03:30:45;;;;;;;;;;;;;;;14.73;100.00;102291.59;5091074;28;19924;-31
2022/09/01 03:33:13;;;;;;;;;;;;;;;14.72;100.00;102283.44;5110289;28;19967;-34
2022/09/01 03:35:43;;;;;;;;;;;;;;;14.70;100.00;102282.91;5110853;28;19930;-34
2022/09/01 03:38:21;;;;;;;;;;;;;;;14.67;100.00;102287.13;5094102;28;20045;-35
2022/09/01 03:40:51;;;;;;;;;;;;;;;14.67;100.00;102287.13;5093338;28;19924;-38
2022/09/01 03:43:22;;;;;;;;;;;;;;;14.66;100.00;102285.44;5112424;28;20020;-30
2022/09/01 03:45:49;;;;;;;;;;;;;;;14.64;100.00;102279.28;5093997;28;20017;-37
2022/09/01 03:48:18;;;;;;;;;;;;;;;14.61;100.00;102285.47;5093211;28;19935;-30
2022/09/01 03:50:48;;;;;;;;;;;;;;;14.60;100.00;102280.97;5093918;28;19932;-32
2022/09/01 03:53:18;;;;;;;;;;;;;;;14.57;100.00;102284.41;5112950;28;19924;-32
2022/09/01 03:55:46;;;;;;;;;;;;;;;14.57;100.00;102273.16;5096956;28;19923;-35
2022/09/01 03:58:17;;;;;;;;;;;;;;;14.56;100.00;102270.66;5097751;28;19931;-35
2022/09/01 04:00:46;;;;;;;;;;;;;;;14.53;100.00;102274.88;5097649;28;19939;-31
2022/09/01 04:03:20;;;;;;;;;;;;;;;14.51;100.00;102274.31;5093547;28;19934;-33
2022/09/01 04:06:01;;;;;;;;;;;;;;;14.49;100.00;102276.59;5086670;28;19924;-34
2022/09/01 04:08:30;;;;;;;;;;;;;;;14.47;100.00;102276.88;5097455;28;19955;-31
2022/09/01 04:11:01;;;;;;;;;;;;;;;14.46;100.00;102274.34;5096777;28;20300;-40
2022/09/01 04:13:34;;;;;;;;;;;;;;;14.43;100.00;102272.13;5097459;28;19924;-34
2022/09/01 04:16:02;;;;;;;;;;;;;;;14.43;100.00;102272.13;5096575;28;20019;-37
2022/09/01 04:18:29;;;;;;;;;;;;;;;14.42;100.00;102267.63;5097212;28;19935;-31
2022/09/01 04:20:58;;;;;;;;;;;;;;;14.40;100.00;102272.66;5097168;28;19923;-34
2022/09/01 04:23:28;;;;;;;;;;;;;;;14.38;100.00;102275.78;5096252;28;19939;-31
2022/09/01 04:25:59;;;;;;;;;;;;;;;14.38;100.00;102269.34;5097186;28;20392;-34
2022/09/01 04:28:32;;;;;;;;;;;;;;;14.36;100.00;102266.81;5096845;28;20022;-32
2022/09/01 04:31:06;;;;;;;;;;;;;;;14.35;100.00;102281.16;5096178;28;19928;-34
2022/09/01 04:33:38;;;;;;;;;;;;;;;14.33;100.00;102272.16;5096786;28;20287;-36
2022/09/01 04:36:18;;;;;;;;;;;;;;;14.31;100.00;102280.88;5095077;28;19924;-39
2022/09/01 04:38:49;;;;;;;;;;;;;;;14.30;100.00;102278.34;5095820;28;20014;-35
2022/09/01 04:41:19;;;;;;;;;;;;;;;14.27;100.00;102281.75;5112605;28;19977;-32
2022/09/01 04:43:48;;;;;;;;;;;;;;;14.26;100.00;102277.25;5096322;28;19966;-32
2022/09/01 04:46:15;;;;;;;;;;;;;;;14.23;100.00;102277.81;5095379;28;19971;-33
2022/09/01 04:48:44;;;;;;;;;;;;;;;14.19;100.00;102276.75;5107750;28;20311;-35
2022/09/01 04:51:15;;;;;;;;;;;;;;;14.17;100.00;102279.00;5094661;28;19969;-34
2022/09/01 04:53:52;;;;;;;;;;;;;;;14.16;100.00;102280.13;5095423;28;19927;-34
2022/09/01 04:56:22;;;;;;;;;;;;;;;14.12;100.00;102280.69;5113810;28;19924;-31
2022/09/01 04:59:07;;;;;;;;;;;;;;;14.10;100.00;102282.94;5089453;28;19994;-33
2022/09/01 05:01:42;;;;;;;;;;;;;;;14.08;100.00;102288.00;5096157;28;19973;-31
2022/09/01 05:04:13;;;;;;;;;;;;;;;14.07;100.00;102277.91;5096535;28;20346;-32
2022/09/01 05:06:41;;;;;;;;;;;;;;;14.06;100.00;102284.66;5094625;28;20403;-31
2022/09/01 05:09:11;;;;;;;;;;;;;;;14.05;100.00;102288.59;5096122;28;19923;-32
2022/09/01 05:11:51;;;;;;;;;;;;;;;14.04;100.00;102284.09;5096118;28;20363;-40
2022/09/01 05:14:25;;;;;;;;;;;;;;;14.03;100.00;102285.22;5095147;28;19935;-38
2022/09/01 05:16:56;;;;;;;;;;;;;;;14.02;100.00;102289.16;5096185;28;19927;-36
2022/09/01 05:19:27;;;;;;;;;;;;;;;14.01;100.00;102279.06;5095056;28;19930;-36
2022/09/01 05:21:58;;;;;;;;;;;;;;;14.00;100.00;102288.59;5095784;28;20320;-37
2022/09/01 05:24:29;;;;;;;;;;;;;;;14.01;100.00;102287.47;5114160;28;19950;-38
2022/09/01 05:27:00;;;;;;;;;;;;;;;14.02;100.00;102283.53;5094960;28;19927;-38
2022/09/01 05:29:28;;;;;;;;;;;;;;;14.02;100.00;102291.97;5095812;28;20441;-40
2022/09/01 05:31:57;;;;;;;;;;;;;;;14.04;100.00;102294.47;5095566;28;20288;-40
2022/09/01 05:34:26;;;;;;;;;;;;;;;14.05;100.00;102294.19;5094574;28;20327;-37
2022/09/01 05:36:56;;;;;;;;;;;;;;;14.06;100.00;102287.47;5113903;28;19932;-36
2022/09/01 05:39:24;;;;;;;;;;;;;;;14.07;100.00;102291.94;5095337;28;19924;-33
2022/09/01 05:41:54;;;;;;;;;;;;;;;14.09;100.00;102288.84;5112956;28;20386;-37
2022/09/01 05:44:22;;;;;;;;;;;;;;;14.10;100.00;102280.16;5114149;28;19932;-36
2022/09/01 05:46:52;;;;;;;;;;;;;;;14.13;100.00;102288.00;5095458;28;20011;-35
2022/09/01 05:49:20;;;;;;;;;;;;;;;14.16;100.00;102292.19;5094455;28;19973;-30
2022/09/01 05:51:50;;;;;;;;;;;;;;;14.18;100.00;102289.09;5094656;28;19924;-33
2022/09/01 05:54:24;;;;;;;;;;;;;;;14.19;100.00;102297.22;5113889;28;19927;-32
2022/09/01 05:56:56;;;;;;;;;;;;;;;14.23;100.00;102295.50;5113759;28;19924;-35
2022/09/01 05:59:32;;;;;;;;;;;;;;;14.26;100.00;102294.94;5093338;28;20006;-34
2022/09/01 06:02:11;;;;;;;;;;;;;;;14.30;100.00;102306.44;5090321;28;19923;-33
2022/09/01 06:04:40;;;;;;;;;;;;;;;14.34;100.00;102301.94;5113528;28;19923;-32
2022/09/01 06:07:13;;;;;;;;;;;;;;;14.37;100.00;102301.34;5095161;28;19991;-38
2022/09/01 06:09:48;;;;;;;;;;;;;;;14.41;100.00;102296.84;5094471;28;19956;-36
2022/09/01 06:12:22;;;;;;;;;;;;;;;14.46;100.00;102299.63;5094884;28;19928;-37
2022/09/01 06:14:51;;;;;;;;;;;;;;;14.52;100.00;102306.06;5090406;28;19927;-36
2022/09/01 06:17:23;;;;;;;;;;;;;;;14.57;100.00;102306.03;5093451;28;19928;-38
2022/09/01 06:19:54;;;;;;;;;;;;;;;14.63;100.00;102296.41;5112373;28;19946;-36
2022/09/01 06:22:23;;;;;;;;;;;;;;;14.67;100.00;102295.56;5094044;28;19924;-35
2022/09/01 06:24:53;;;;;;;;;;;;;;;14.72;100.00;102291.88;5093279;28;20453;-33
2022/09/01 06:27:28;;;;;;;;;;;;;;;14.77;100.00;102295.50;5093941;28;19928;-36
2022/09/01 06:29:56;;;;;;;;;;;;;;;14.84;100.00;102295.16;5093287;28;20339;-39
2022/09/01 06:32:25;;;;;;;;;;;;;;;14.90;100.00;102301.56;5093810;28;19931;-32
2022/09/01 06:34:56;;;;;;;;;;;;;;;14.97;100.00;102300.13;5093922;28;19962;-38
2022/09/01 06:37:25;;;;;;;;;;;;;;;15.03;100.00;102298.91;5092910;28;19993;-33
2022/09/01 06:39:57;;;;;;;;;;;;;;;15.11;100.00;102300.28;5093385;28;19975;-30
2022/09/01 06:42:25;;;;;;;;;;;;;;;15.19;100.00;102291.19;5094446;28;20326;-31
2022/09/01 06:45:00;;;;;;;;;;;;;;;15.28;100.00;102295.03;5093008;28;19967;-31
2022/09/01 06:47:28;;;;;;;;;;;;;;;15.42;100.00;102298.84;5094117;28;19939;-31
2022/09/01 06:49:57;;;;;;;;;;;;;;;15.54;100.00;102298.44;5111628;28;20403;-36
2022/09/01 06:52:26;;;;;;;;;;;;;;;15.70;100.00;102308.44;5093106;28;19932;-38
2022/09/01 06:54:56;;;;;;;;;;;;;;;15.99;100.00;102310.31;5094218;28;20018;-31
2022/09/01 06:57:25;;;;;;;;;;;;;;;16.40;100.00;102305.00;5094266;28;20358;-37
2022/09/01 07:00:16;;;;;;;;;;;;;;;17.08;100.00;102311.00;5094124;28;20350;-37
2022/09/01 07:02:47;;;;;;;;;;;;;;;17.80;100.00;102311.41;5093500;28;20006;-37
2022/09/01 07:05:33;;;;;;;;;;;;;;;18.72;100.00;102304.63;5093492;28;19923;-37
2022/09/01 07:08:30;;;;;;;;;;;;;;;19.74;100.00;102302.00;5088591;28;20409;-31
2022/09/01 07:11:26;;;;;;;;;;;;;;;20.52;98.69;102308.75;5110614;28;20438;-40
2022/09/01 07:14:15;;;;;;;;;;;;;;;21.32;92.97;102307.25;5094133;28;20307;-32
2022/09/01 07:16:45;;;;;;;;;;;;;;;21.96;87.08;102310.06;5092861;28;19963;-33
2022/09/01 07:19:20;;;;;;;;;;;;;;;22.51;77.36;102303.41;5111348;28;19959;-33
2022/09/01 07:21:55;;;;;;;;;;;;;;;22.89;74.35;102315.50;5094189;28;19980;-34
2022/09/01 07:24:47;;;;;;;;;;;;;;;23.44;72.34;102302.06;5093061;28;19924;-31
2022/09/01 07:27:35;;;;;;;;;;;;;;;24.05;69.74;102312.41;5110733;28;19924;-31
2022/09/01 07:30:10;;;;;;;;;;;;;;;24.58;64.59;102303.97;5094230;28;19931;-33
2022/09/01 07:32:43;;;;;;;;;;;;;;;24.96;57.39;102310.09;5098174;28;19997;-38
2022/09/01 07:35:15;;;;;;;;;;;;;;;25.21;59.77;102302.22;5097281;28;19967;-31
2022/09/01 07:37:44;;;;;;;;;;;;;;;25.54;59.10;102299.09;5097241;28;19923;-34
2022/09/01 07:40:36;;;;;;;;;;;;;;;25.97;57.29;102309.66;5094208;28;19924;-36
2022/09/01 07:43:44;;;;;;;;;;;;;;;26.47;52.59;102307.19;5108561;28;20007;-36
2022/09/01 07:46:31;;;;;;;;;;;;;;;26.81;52.60;102306.34;5116280;28;20256;-31
2022/09/01 07:49:12;;;;;;;;;;;;;;;27.14;51.47;102310.78;5097565;28;19928;-33
2022/09/01 07:52:02;;;;;;;;;;;;;;;27.59;51.52;102312.91;5097577;28;19924;-37
2022/09/01 07:54:32;;;;;;;;;;;;;;;27.97;47.27;102312.00;5115136;28;20265;-38
2022/09/01 07:57:00;;;;;;;;;;;;;;;28.23;46.92;102317.78;5097439;28;19968;-36
2022/09/01 07:59:29;;;;;;;;;;;;;;;28.44;46.50;102308.66;5097428;28;19962;-37
2022/09/01 08:02:05;;;;;;;;;;;;;;;28.67;44.29;102311.47;5096573;28;19969;-34
2022/09/01 08:04:34;;;;;;;;;;;;;;;28.88;44.64;102305.22;5097316;28;20389;-40
2022/09/01 08:07:05;;;;;;;;;;;;;;;29.21;43.86;102316.72;5097330;28;19923;-35
2022/09/01 08:09:36;;;;;;;;;;;;;;;29.38;42.97;102303.78;5089365;28;20413;-38
2022/09/01 08:12:10;;;;;;;;;;;;;;;29.66;41.33;102312.75;5097362;28;19974;-31
2022/09/01 08:14:45;;;;;;;;;;;;;;;29.91;40.70;102315.06;5097367;28;20388;-35
2022/09/01 08:17:13;;;;;;;;;;;;;;;30.07;40.92;102315.63;5114640;28;20393;-34
2022/09/01 08:20:08;;;;;;;;;;;;;;;30.18;39.04;102316.53;5097576;28;19923;-37
2022/09/01 08:22:59;;;;;;;;;;;;;;;30.17;39.06;102317.78;5114993;28;19928;-39
2022/09/01 08:25:35;;;;;;;;;;;;;;;30.27;38.28;102324.84;5097037;28;19970;-34
2022/09/01 08:28:04;;;;;;;;;;;;;;;30.36;38.32;102317.53;5096681;28;20358;-32
2022/09/01 08:30:33;;;;;;;;;;;;;;;30.49;38.39;102326.66;5095979;28;19977;-37
2022/09/01 08:33:01;;;;;;;;;;;;;;;30.40;37.39;102321.22;5096822;28;19952;-38
2022/09/01 08:35:48;;;;;;;;;;;;;;;30.17;37.94;102316.97;5095997;28;19927;-32
2022/09/01 08:38:17;;;;;;;;;;;;;;;30.24;38.47;102320.72;5096311;28;19923;-32
2022/09/01 08:40:50;;;;;;;;;;;;;;;30.26;37.22;102317.44;5095641;28;19927;-41
2022/09/01 08:43:31;;;;;;;;;;;;;;;30.38;38.56;102320.81;5095972;28;19924;-33
2022/09/01 08:46:07;;;;;;;;;;;;;;;30.54;36.71;102323.41;5096649;28;19973;-32
2022/09/01 08:48:39;;;;;;;;;;;;;;;30.64;38.89;102316.91;5095854;28;19928;-40
2022/09/01 08:51:35;;;;;;;;;;;;;;;30.87;36.72;102318.66;5095919;28;19929;-31
2022/09/01 08:54:06;;;;;;;;;;;;;;;30.88;37.24;102320.31;5096793;28;19963;-32
2022/09/01 08:56:36;;;;;;;;;;;;;;;30.70;35.47;102321.06;5096518;28;19924;-37
2022/09/01 08:59:06;;;;;;;;;;;;;;;30.61;36.92;102316.88;5095769;28;19955;-33
2022/09/01 09:02:00;;;;;;;;;;;;;;;30.64;36.42;102316.91;5094757;28;19924;-37
2022/09/01 09:04:46;;;;;;;;;;;;;;;30.92;38.44;102322.00;5113855;28;20064;-31
2022/09/01 09:07:21;;;;;;;;;;;;;;;31.21;34.24;102319.25;5114633;28;19930;-37
2022/09/01 09:09:51;;;;;;;;;;;;;;;31.46;35.84;102323.88;5114278;28;20460;-37
2022/09/01 09:12:32;;;;;;;;;;;;;;;31.75;36.41;102321.09;5113752;28;20014;-31
2022/09/01 09:15:06;;;;;;;;;;;;;;;32.03;33.42;102323.16;5114442;28;19923;-32
2022/09/01 09:17:36;;;;;;;;;;;;;;;31.93;35.49;102319.06;5114368;28;19931;-31
2022/09/01 09:20:04;;;;;;;;;;;;;;;31.91;34.28;102309.97;5094932;28;20296;-31
2022/09/01 09:22:34;;;;;;;;;;;;;;;32.02;33.81;102315.75;5113489;28;19930;-32
2022/09/01 09:25:05;;;;;;;;;;;;;;;31.86;34.91;102313.25;5113167;28;19977;-33
2022/09/01 09:27:34;;;;;;;;;;;;;;;31.95;35.03;102310.81;5112899;28;19924;-31
2022/09/01 09:30:03;;;;;;;;;;;;;;;32.08;31.77;102311.22;5113322;28;19931;-33
2022/09/01 09:32:48;;;;;;;;;;;;;;;32.03;34.22;102305.84;5112740;28;19923;-34
2022/09/01 09:35:38;;;;;;;;;;;;;;;32.07;34.07;102295.94;5114029;28;20269;-40
2022/09/01 09:38:21;;;;;;;;;;;;;;;32.25;33.72;102301.72;5113614;28;19931;-36
2022/09/01 09:40:56;;;;;;;;;;;;;;;32.46;33.64;102298.81;5111706;28;19931;-38
2022/09/01 09:43:47;;;;;;;;;;;;;;;32.63;33.50;102304.97;5107500;28;19924;-41
2022/09/01 09:46:22;;;;;;;;;;;;;;;32.82;33.38;102290.06;5111138;28;19924;-34
2022/09/01 09:49:06;;;;;;;;;;;;;;;32.95;32.18;102285.50;5106581;28;19923;-40
2022/09/01 09:51:35;;;;;;;;;;;;;;;32.96;32.82;102278.47;5110421;28;20057;-32
2022/09/01 09:54:15;;;;;;;;;;;;;;;33.00;31.22;102285.03;5111973;28;19924;-36
2022/09/01 09:56:44;;;;;;;;;;;;;;;32.89;32.82;102284.25;5112952;28;20306;-40
2022/09/01 09:59:17;;;;;;;;;;;;;;;32.87;32.59;102280.97;5113456;28;19931;-34
2022/09/01 10:02:21;;;;;;;;;;;;;;;33.07;32.78;102281.28;5110562;28;20305;-33
2022/09/01 10:04:54;;;;;;;;;;;;;;;33.12;32.45;102273.00;5113094;28;19924;-35
2022/09/01 10:07:24;;;;;;;;;;;;;;;33.02;31.32;102275.94;5113137;28;20304;-32
2022/09/01 10:09:54;;;;;;;;;;;;;;;32.98;32.75;102264.38;5112327;28;19924;-32
2022/09/01 10:12:23;;;;;;;;;;;;;;;33.13;33.02;102270.94;5112775;28;19930;-32
2022/09/01 10:14:52;;;;;;;;;;;;;;;33.22;32.02;102269.22;5112548;28;19934;-32
2022/09/01 10:17:22;;;;;;;;;;;;;;;33.22;31.28;102259.72;5112680;28;19930;-37
2022/09/01 10:19:54;;;;;;;;;;;;;;;33.25;30.68;102264.66;5112713;28;20479;-37
2022/09/01 10:22:22;;;;;;;;;;;;;;;33.12;30.89;102266.41;5111637;28;19923;-35
2022/09/01 10:24:50;;;;;;;;;;;;;;;32.90;31.87;102259.88;5112447;28;19946;-32
2022/09/01 10:27:21;;;;;;;;;;;;;;;32.82;32.03;102253.31;5112527;28;20452;-32
2022/09/01 10:29:52;;;;;;;;;;;;;;;32.64;31.18;102261.19;5112129;28;20376;-34
2022/09/01 10:32:40;;;;;;;;;;;;;;;32.43;31.15;102267.03;5094303;28;19984;-37
2022/09/01 10:35:22;;;;;;;;;;;;;;;32.35;32.04;102260.47;5106030;28;19984;-32
2022/09/01 10:37:50;;;;;;;;;;;;;;;32.49;32.04;102259.59;5111852;28;19931;-32
2022/09/01 10:40:21;;;;;;;;;;;;;;;32.70;31.88;102252.91;5110373;28;19928;-32
2022/09/01 10:43:00;;;;;;;;;;;;;;;32.83;31.99;102251.22;5110912;28;19927;-37
2022/09/01 10:45:33;;;;;;;;;;;;;;;32.93;31.83;102249.56;5111156;28;19945;-38
2022/09/01 10:48:19;;;;;;;;;;;;;;;32.96;31.80;102240.88;5110139;28;20022;-35
2022/09/01 10:51:12;;;;;;;;;;;;;;;33.11;30.83;102251.09;5105447;28;20383;-40
2022/09/01 10:53:45;;;;;;;;;;;;;;;33.12;30.60;102238.28;5109871;28;19928;-34
2022/09/01 10:56:15;;;;;;;;;;;;;;;32.90;30.19;102239.63;5111470;28;20022;-42
2022/09/01 10:59:06;;;;;;;;;;;;;;;32.59;31.14;102243.44;5110482;28;19928;-36
2022/09/01 11:02:05;;;;;;;;;;;;;;;32.59;31.74;102241.38;5110470;28;19928;-37
2022/09/01 11:05:13;;;;;;;;;;;;;;;32.49;30.86;102242.25;5109427;28;19927;-31
2022/09/01 11:07:40;;;;;;;;;;;;;;;32.23;29.85;102239.81;5110365;28;19927;-34
2022/09/01 11:10:33;;;;;;;;;;;;;;;31.88;30.26;102234.88;5110906;28;19946;-32
2022/09/01 11:13:20;;;;;;;;;;;;;;;31.84;32.04;102235.72;5100091;28;19928;-36
2022/09/01 11:15:49;;;;;;;;;;;;;;;31.84;31.64;102244.38;5110886;28;20332;-36
2022/09/01 11:18:24;;;;;;;;;;;;;;;31.57;31.73;102237.34;5110482;28;19923;-35
2022/09/01 11:20:54;;;;;;;;;;;;;;;31.32;32.66;102243.06;5111195;28;19924;-32
2022/09/01 11:23:23;;;;;;;;;;;;;;;31.39;32.95;102236.47;5111228;28;20002;-32
2022/09/01 11:25:52;;;;;;;;;;;;;;;31.51;31.89;102241.88;5110373;28;19930;-39
2022/09/01 11:28:41;;;;;;;;;;;;;;;31.37;31.71;102233.19;5101181;28;19928;-34
2022/09/01 11:31:22;;;;;;;;;;;;;;;31.23;33.48;102238.91;5111092;28;19932;-40
2022/09/01 11:34:10;;;;;;;;;;;;;;;31.08;34.25;102247.50;5100429;28;19951;-36
2022/09/01 11:36:46;;;;;;;;;;;;;;;31.06;34.41;102229.78;5108007;28;19931;-40
2022/09/01 11:39:28;;;;;;;;;;;;;;;30.99;34.29;102231.81;5110189;28;19986;-42
2022/09/01 11:42:00;;;;;;;;;;;;;;;30.84;34.37;102228.88;5110383;28;19923;-38
2022/09/01 11:44:36;;;;;;;;;;;;;;;30.68;34.43;102231.28;5110991;28;20270;-33
2022/09/01 11:47:07;;;;;;;;;;;;;;;30.55;34.40;102230.00;5110039;28;19934;-36
2022/09/01 11:49:46;;;;;;;;;;;;;;;30.54;34.40;102230.38;5109245;28;20365;-32
2022/09/01 11:52:14;;;;;;;;;;;;;;;30.41;33.91;102221.22;5110553;28;19928;-31
2022/09/01 11:54:45;;;;;;;;;;;;;;;30.17;33.53;102225.63;5110152;28;19931;-38
2022/09/01 11:57:23;;;;;;;;;;;;;;;29.85;34.11;102216.72;5110497;28;19924;-37
2022/09/01 11:59:51;;;;;;;;;;;;;;;29.57;34.21;102217.31;5110892;28;19947;-41
2022/09/01 12:02:23;;;;;;;;;;;;;;;29.39;34.33;102211.38;5110113;28;20309;-39
2022/09/01 12:04:53;;;;;;;;;;;;;;;29.32;34.56;102207.59;5111673;28;19927;-32
2022/09/01 12:07:26;;;;;;;;;;;;;;;29.36;33.83;102206.41;5110661;28;19928;-32
2022/09/01 12:09:54;;;;;;;;;;;;;;;29.40;34.32;102210.16;5100630;28;20395;-38
2022/09/01 12:12:27;;;;;;;;;;;;;;;29.36;34.34;102200.66;5111729;28;19927;-38
2022/09/01 12:14:58;;;;;;;;;;;;;;;29.26;34.09;102204.25;5112314;28;19930;-32
2022/09/01 12:17:34;;;;;;;;;;;;;;;29.30;34.33;102195.66;5115626;28;19924;-40
2022/09/01 12:20:20;;;;;;;;;;;;;;;29.45;34.54;102200.34;5115211;28;19930;-32
2022/09/01 12:22:54;;;;;;;;;;;;;;;29.48;33.27;102205.31;5112614;28;19928;-43
2022/09/01 12:25:23;;;;;;;;;;;;;;;29.19;33.64;102209.09;5103023;28;19924;-32
2022/09/01 12:27:52;;;;;;;;;;;;;;;28.70;33.85;102201.53;5115748;28;20014;-41
2022/09/01 12:30:20;;;;;;;;;;;;;;;28.45;35.01;102196.28;5114168;28;19928;-38
2022/09/01 12:32:49;;;;;;;;;;;;;;;28.47;34.32;102198.75;5096904;28;20281;-40
2022/09/01 12:35:20;;;;;;;;;;;;;;;28.56;33.83;102195.59;5114781;28;19932;-37
2022/09/01 12:37:49;;;;;;;;;;;;;;;28.50;34.04;102191.41;5115046;28;19934;-32
2022/09/01 12:40:24;;;;;;;;;;;;;;;28.44;31.92;102188.88;5113327;28;19928;-32
2022/09/01 12:42:53;;;;;;;;;;;;;;;28.30;32.65;102190.75;5111824;28;20015;-33
2022/09/01 12:45:37;;;;;;;;;;;;;;;28.36;33.59;102190.03;5113966;28;19965;-31
2022/09/01 12:48:06;;;;;;;;;;;;;;;28.48;32.38;102186.06;5114126;28;19968;-40
2022/09/01 12:50:42;;;;;;;;;;;;;;;28.62;33.91;102194.03;5112959;28;19923;-31
2022/09/01 12:53:18;;;;;;;;;;;;;;;28.57;31.48;102182.91;5111486;28;19924;-37
2022/09/01 12:55:58;;;;;;;;;;;;;;;28.49;32.35;102184.03;5113683;28;19977;-32
2022/09/01 12:58:28;;;;;;;;;;;;;;;28.42;32.34;102184.75;5110945;28;20399;-33
2022/09/01 13:00:57;;;;;;;;;;;;;;;28.17;32.45;102189.31;5112178;28;19931;-31
2022/09/01 13:03:28;;;;;;;;;;;;;;;28.03;33.29;102179.25;5112652;28;19928;-35
2022/09/01 13:05:57;;;;;;;;;;;;;;;27.98;33.00;102178.75;5113588;28;19924;-32